Latest Weather Observations for Salmon Gums RS

IDW60801

Issued at 12:02 pm WST Sunday 5 July 2015 (issued every 30 minutes, with the page automatically refreshed every 10 minutes)

About weather observations | Map of weather stations | Latest weather observations for WA | Other Formats
Station Details ID: 012071 Name: SALMON GUMS RES.STN. Lat: -32.99 Lon: 121.62 Height: 249.0 m
Data from the previous 72 hours. | See also: Recent months at Salmon Gums RS
Date/Time
WST
Temp
°C
App
Temp
°C
Dew
Point
Rel
Hum
%
Delta-T
°C
Wind Press
QNH
hPa
Press
MSL
hPa
Rain
since 9 am
mm
Dir
 
Spd
km/h
Gust
km/h
Spd
kts
Gust
kts
05/12:00pm 14.3 12.8 10.7 79 1.9 W 9 17 5 9 - - 0.0
05/11:30am 14.0 12.9 12.0 88 1.1 WSW 9 17 5 9 - - 0.0
05/11:00am 12.6 10.9 11.3 92 0.7 W 11 17 6 9 - - 0.0
05/10:30am 12.2 10.9 11.1 93 0.6 WNW 9 15 5 8 - - 0.0
05/10:00am 11.7 10.2 10.6 93 0.6 WNW 9 17 5 9 - - 0.0
05/09:30am 11.5 10.0 10.4 93 0.6 WNW 9 15 5 8 - - 0.0
05/09:00am 11.1 9.1 10.0 93 0.6 WNW 11 17 6 9 - - 0.4
05/08:30am 10.7 8.9 9.5 92 0.6 WNW 9 15 5 8 - - 0.2
05/08:00am 10.4 8.5 9.2 92 0.6 W 9 15 5 8 - - 0.2
05/07:30am 10.1 8.2 9.0 93 0.6 WNW 9 15 5 8 - - 0.2
05/07:00am 9.6 7.6 8.7 94 0.4 NW 9 11 5 6 - - 0.2
05/06:30am 9.2 7.1 8.3 94 0.4 WNW 9 13 5 7 - - 0.2
05/06:00am 8.9 7.1 8.0 94 0.4 NW 7 11 4 6 - - 0.2
05/05:30am 9.0 7.2 8.1 94 0.4 NW 7 11 4 6 - - 0.2
05/05:00am 9.0 7.2 7.9 93 0.5 WNW 7 13 4 7 - - 0.2
05/04:30am 9.0 6.8 7.9 93 0.5 WNW 9 13 5 7 - - 0.2
05/04:00am 9.4 7.7 8.2 92 0.6 NW 7 9 4 5 - - 0.2
05/03:30am 9.8 7.8 8.6 92 0.6 WNW 9 15 5 8 - - 0.2
05/03:00am 10.0 8.4 8.6 91 0.7 NW 7 11 4 6 - - 0.2
05/02:30am 10.4 8.1 9.0 91 0.7 WNW 11 15 6 8 - - 0.2
05/02:00am 10.5 8.2 9.1 91 0.7 NW 11 17 6 9 - - 0.2
05/01:30am 10.4 8.5 9.0 91 0.7 NW 9 15 5 8 - - 0.2
05/01:00am 9.7 8.0 8.5 92 0.6 NW 7 11 4 6 - - 0.2
05/12:30am 9.0 7.1 7.6 91 0.7 NW 7 9 4 5 - - 0.0
05/12:00am 9.4 7.8 7.8 90 0.8 NW 6 7 3 4 - - 0.0
 
Date/Time
WST
Temp
°C
App
Temp
°C
Dew
Point
Rel
Hum
%
Delta-T
°C
Wind Press
QNH
hPa
Press
MSL
hPa
Rain
since 9 am
mm
Dir
 
Spd
km/h
Gust
km/h
Spd
kts
Gust
kts
04/11:30pm 10.2 8.2 8.6 90 0.8 NW 9 11 5 6 - - 0.0
04/11:00pm 9.8 8.0 8.1 89 0.8 NW 7 9 4 5 - - 0.0
04/10:30pm 10.2 8.6 8.6 90 0.8 NW 7 9 4 5 - - 0.0
04/10:00pm 9.7 8.0 8.3 91 0.7 NW 7 11 4 6 - - 0.0
04/09:30pm 9.4 7.7 7.7 89 0.8 NW 6 7 3 4 - - 0.0
04/09:00pm 10.4 8.8 8.2 86 1.1 NW 6 7 3 4 - - 0.0
04/08:30pm 12.1 11.0 10.0 87 1.1 WNW 6 7 3 4 - - 0.0
04/08:00pm 12.0 11.1 10.6 91 0.7 WNW 6 7 3 4 - - 0.0
04/07:30pm 10.6 9.3 9.2 91 0.7 WNW 6 7 3 4 - - 0.0
04/07:00pm 9.9 8.3 8.2 89 0.8 NW 6 6 3 3 - - 0.0
04/06:30pm 10.7 9.3 8.8 88 1.0 NNW 6 7 3 4 - - 0.0
04/06:00pm 12.4 11.3 10.0 85 1.2 N 6 7 3 4 - - 0.0
04/05:30pm 13.8 13.3 10.6 81 1.7 NNW 4 6 2 3 - - 0.0
04/05:00pm 14.6 14.1 10.8 78 2.0 NNW 4 6 2 3 - - 0.0
04/04:30pm 15.6 14.8 11.0 74 2.5 NNW 6 6 3 3 - - 0.0
04/04:00pm 16.7 15.7 11.0 69 3.1 N 7 9 4 5 - - 0.0
04/03:30pm 16.8 15.9 11.3 70 3.0 N 7 9 4 5 - - 0.0
04/03:00pm 16.6 15.7 11.3 71 2.9 WNW 7 11 4 6 - - 0.0
04/02:30pm 16.5 15.6 11.4 72 2.8 WNW 7 11 4 6 - - 0.0
04/02:00pm 16.7 15.9 11.8 73 2.7 W 7 15 4 8 - - 0.0
04/01:30pm 16.1 15.5 12.3 78 2.1 NW 7 11 4 6 - - 0.0
04/01:00pm 15.9 14.5 12.3 79 2.0 WNW 11 15 6 8 - - 0.0
04/12:30pm 15.6 14.6 12.4 81 1.8 NW 9 15 5 8 - - 0.0
04/12:00pm 15.2 14.3 12.5 84 1.5 WNW 9 17 5 9 - - 0.0
04/11:30am 14.8 13.4 12.3 85 1.4 NW 11 13 6 7 - - 0.0
04/11:00am 14.8 13.4 12.1 84 1.5 NW 11 15 6 8 - - 0.0
04/10:30am 15.3 14.0 12.6 84 1.5 W 11 19 6 10 - - 0.0
04/10:00am 14.6 13.8 12.8 89 1.0 WNW 9 15 5 8 - - 0.0
04/09:30am 13.5 12.6 12.6 94 0.5 WNW 9 13 5 7 - - 0.0
04/09:00am 12.4 10.8 11.6 95 0.4 WNW 11 19 6 10 - - 0.2
04/08:30am 11.2 9.3 10.6 96 0.3 WNW 11 15 6 8 - - 0.2
04/08:00am 10.6 8.9 10.0 96 0.3 NW 9 9 5 5 - - 0.2
04/07:30am 9.5 7.6 8.9 96 0.3 NW 9 11 5 6 - - 0.2
04/07:00am 8.1 6.1 7.3 95 0.4 NW 7 9 4 5 - - 0.2
04/06:30am 8.1 5.8 7.3 95 0.4 NW 9 11 5 6 - - 0.2
04/06:00am 8.2 6.3 7.4 95 0.4 NW 7 9 4 5 - - 0.2
04/05:30am 8.6 6.4 7.8 95 0.4 NW 9 11 5 6 - - 0.2
04/05:00am 8.2 6.2 7.3 94 0.4 WNW 7 9 4 5 - - 0.2
04/04:30am 9.1 7.0 8.3 95 0.4 NW 9 11 5 6 - - 0.2
04/04:00am 8.7 6.5 7.9 95 0.4 NW 9 13 5 7 - - 0.2
04/03:30am 8.7 6.9 7.8 94 0.4 NW 7 9 4 5 - - 0.2
04/03:00am 8.1 6.1 7.0 93 0.5 NW 7 9 4 5 - - 0.2
04/02:30am 8.8 6.6 7.9 94 0.4 NW 9 11 5 6 - - 0.0
04/02:00am 9.2 7.5 8.3 94 0.4 NW 7 9 4 5 - - 0.0
04/01:30am 9.1 7.3 8.0 93 0.5 NW 7 9 4 5 - - 0.0
04/01:00am 9.0 7.2 7.9 93 0.5 NW 7 9 4 5 - - 0.0
04/12:30am 8.8 7.1 7.6 92 0.6 NW 6 7 3 4 - - 0.0
04/12:00am 9.4 7.7 8.2 92 0.6 NW 7 9 4 5 - - 0.0
 
Date/Time
WST
Temp
°C
App
Temp
°C
Dew
Point
Rel
Hum
%
Delta-T
°C
Wind Press
QNH
hPa
Press
MSL
hPa
Rain
since 9 am
mm
Dir
 
Spd
km/h
Gust
km/h
Spd
kts
Gust
kts
03/11:30pm 9.5 7.8 8.3 92 0.6 NNW 7 11 4 6 - - 0.0
03/11:00pm 9.7 8.0 8.3 91 0.7 NW 7 9 4 5 - - 0.0
03/10:30pm 10.2 8.7 9.0 92 0.6 NW 7 9 4 5 - - 0.0
03/10:00pm 10.0 8.0 8.8 92 0.6 NW 9 9 5 5 - - 0.0
03/09:30pm 9.8 8.2 8.6 92 0.6 NW 7 7 4 4 - - 0.0
03/09:00pm 10.0 8.5 8.6 91 0.7 W 6 7 3 4 - - 0.0
03/08:30pm 10.7 10.6 9.5 92 0.6 CALM 0 0 0 0 - - 0.0
03/08:00pm 10.2 9.2 9.0 92 0.6 W 4 6 2 3 - - 0.0
03/07:30pm 9.7 8.9 8.1 90 0.8 SW 2 2 1 1 - - 0.0
03/07:00pm 10.4 10.1 8.5 88 0.9 CALM 0 0 0 0 - - 0.0
03/06:30pm 11.3 11.1 8.9 85 1.2 CALM 0 0 0 0 - - 0.0
03/06:00pm 12.5 12.3 9.1 80 1.7 CALM 0 0 0 0 - - 0.0
03/05:30pm 14.3 14.1 8.9 70 2.8 CALM 0 0 0 0 - - 0.0
03/05:00pm 17.0 16.3 10.1 64 3.7 W 4 7 2 4 - - 0.0
03/04:30pm 19.0 18.3 10.0 56 4.9 W 4 6 2 3 - - 0.0
03/04:00pm 19.4 18.3 9.9 54 5.1 W 6 9 3 5 - - 0.0
03/03:30pm 19.9 19.4 9.2 50 5.7 W 2 6 1 3 - - 0.0
03/03:00pm 20.3 20.2 9.5 50 5.8 CALM 0 4 0 2 - - 0.0
03/02:30pm 19.4 17.9 8.4 49 5.8 WNW 6 11 3 6 - - 0.0
03/02:00pm 19.8 18.6 8.2 47 6.1 W 4 11 2 6 - - 0.0
03/01:30pm 19.2 17.2 7.3 46 6.1 NNW 7 11 4 6 - - 0.0
03/01:00pm 18.7 16.4 8.9 53 5.2 NW 11 17 6 9 - - 0.0
03/12:30pm 18.6 16.6 8.6 52 5.2 NNW 9 13 5 7 - - 0.0
03/12:00pm 18.3 15.9 6.8 47 5.8 NNW 9 15 5 8 - - 0.0
03/11:30am 18.0 16.1 9.1 56 4.7 N 9 15 5 8 - - 0.0
03/11:00am 17.1 15.4 9.8 62 3.9 N 9 13 5 7 - - 0.0
03/10:30am 15.2 13.2 10.0 71 2.7 N 11 17 6 9 - - 0.0
03/10:00am 13.6 12.3 10.0 79 1.9 NW 7 9 4 5 - - 0.0
03/09:30am 12.8 12.2 10.3 85 1.3 NW 4 6 2 3 - - 0.0
03/09:00am 12.1 11.4 10.0 87 1.1 WNW 4 6 2 3 - - 6.6
03/08:30am 11.7 10.8 9.4 86 1.2 NNW 4 6 2 3 - - 6.6
03/08:00am 11.6 10.1 9.3 86 1.2 NNW 7 11 4 6 - - 6.6
03/07:30am 11.6 9.4 9.3 86 1.2 NNW 11 15 6 8 - - 6.6
03/07:00am 11.6 9.3 9.0 84 1.3 NNW 11 15 6 8 - - 6.6
03/06:30am 11.3 9.1 9.4 88 1.0 NNW 11 17 6 9 - - 6.6
03/06:00am 11.1 8.9 9.5 90 0.8 NNW 11 15 6 8 - - 6.6
03/05:30am 10.9 9.2 9.7 92 0.6 N 9 13 5 7 - - 6.6
03/05:00am 10.8 9.4 9.6 92 0.6 N 7 9 4 5 - - 6.6
03/04:30am 10.7 9.5 9.5 92 0.6 NNW 6 6 3 3 - - 6.2
03/04:00am 10.7 9.9 9.5 92 0.6 NE 4 7 2 4 - - 5.8
03/03:30am 10.8 9.4 9.4 91 0.7 NNE 7 11 4 6 - - 5.8
03/03:00am 10.9 9.5 9.5 91 0.7 NNE 7 11 4 6 - - 5.6
03/02:30am 11.0 9.2 9.4 90 0.8 NE 9 13 5 7 - - 5.6
03/02:00am 11.1 8.9 9.5 90 0.8 NE 11 15 6 8 - - 5.6
03/01:30am 11.3 9.2 9.6 89 0.9 NNE 11 19 6 10 - - 5.6
03/01:00am 11.4 8.5 9.5 88 1.0 NNE 15 20 8 11 - - 5.6
03/12:30am 11.5 8.6 9.6 88 1.0 N 15 20 8 11 - - 5.6
03/12:00am 11.2 8.7 9.6 90 0.8 NNE 13 19 7 10 - - 5.4
 
Date/Time
WST
Temp
°C
App
Temp
°C
Dew
Point
Rel
Hum
%
Delta-T
°C
Wind Press
QNH
hPa
Press
MSL
hPa
Rain
since 9 am
mm
Dir
 
Spd
km/h
Gust
km/h
Spd
kts
Gust
kts
02/11:30pm 11.4 8.8 9.5 88 1.0 NNE 13 19 7 10 - - 4.8
02/11:00pm 11.2 9.4 9.6 90 0.8 NNE 9 13 5 7 - - 4.4
02/10:30pm 11.1 9.7 9.7 91 0.7 NNE 7 13 4 7 - - 3.8
02/10:00pm 11.1 10.0 9.9 92 0.6 NE 6 7 3 4 - - 3.4
02/09:30pm 11.1 11.1 9.7 91 0.7 CALM 0 0 0 0 - - 3.2
02/09:00pm 11.3 10.6 9.9 91 0.7 NE 4 6 2 3 - - 3.0
02/08:30pm 11.3 10.0 9.9 91 0.7 NE 7 9 4 5 - - 3.0
02/08:00pm 11.3 10.9 9.9 91 0.7 ENE 2 6 1 3 - - 2.8
02/07:30pm 11.4 10.7 10.0 91 0.7 NE 4 9 2 5 - - 2.4
02/07:00pm 11.2 10.4 9.8 91 0.7 NE 4 6 2 3 - - 2.2
02/06:30pm 11.4 10.6 9.7 89 0.9 NNW 4 4 2 2 - - 1.8
02/06:00pm 11.6 10.2 9.7 88 1.0 N 7 9 4 5 - - 1.4
02/05:30pm 11.8 11.0 9.7 87 1.1 N 4 6 2 3 - - 1.4
02/05:00pm 11.8 10.7 10.0 89 0.9 NNE 6 6 3 3 - - 1.4
02/04:30pm 12.2 12.0 10.3 88 1.0 NNE 2 4 1 2 - - 1.4
02/04:00pm 12.4 11.5 10.5 88 1.0 NNW 6 7 3 4 - - 1.4
02/03:30pm 12.3 11.1 10.2 87 1.1 NE 7 9 4 5 - - 1.4
02/03:00pm 12.5 11.3 10.2 86 1.2 NE 7 9 4 5 - - 1.4
02/02:30pm 12.4 11.1 10.1 86 1.2 E 7 13 4 7 - - 1.4
02/02:00pm 12.2 10.9 10.1 87 1.1 E 7 9 4 5 - - 1.2
02/01:30pm 12.5 11.4 10.0 85 1.3 ENE 6 7 3 4 - - 0.6
02/01:00pm 12.6 11.3 9.8 83 1.4 NNW 7 9 4 5 - - 0.2
02/12:30pm 13.3 11.0 9.0 75 2.2 NNW 11 17 6 9 - - 0.0

Other Formats:

Comma delimited format used in spreadsheet applications
http://www.bom.gov.au/fwo/IDW60801/IDW60801.95639.axf

JavaScript Object Notation format (JSON) in row-major order
http://www.bom.gov.au/fwo/IDW60801/IDW60801.95639.json